Time;durP1;ratioP1;P1;durP2;ratioP2;P2;SDS_P1;SDS_P2;PMS_P1;PMS_P2;Temp;Humidity;BMP_temperature;BMP_pressure;BME280_temperature;BME280_humidity;BME280_pressure;Samples;Min_cycle;Max_cycle;Signal;HPM_P1;HPM_P2
2022/12/22 03:27:30;;;;;;;10.52;8.77;;;11.70;96.70;;;;;;4899563;29;20051;-78
2022/12/22 03:29:58;;;;;;;10.40;8.50;;;11.60;96.70;;;;;;4914865;29;20044;-78
2022/12/22 03:32:27;;;;;;;10.73;8.10;;;11.60;96.70;;;;;;4892668;29;20052;-78
2022/12/22 03:34:56;;;;;;;9.90;8.40;;;11.60;96.70;;;;;;4917864;29;20245;-78
2022/12/22 03:37:24;;;;;;;9.20;7.93;;;11.60;96.70;;;;;;4921146;29;20494;-78
2022/12/22 03:39:52;;;;;;;9.85;8.10;;;11.50;96.70;;;;;;4896905;29;20056;-78
2022/12/22 03:47:56;;;;;;;8.65;7.50;;;11.60;96.70;;;;;;4909897;29;20643;-78
2022/12/22 03:50:26;;;;;;;12.27;8.15;;;11.60;96.70;;;;;;4917306;29;20048;-79
2022/12/22 03:52:54;;;;;;;9.55;7.63;;;11.60;96.70;;;;;;4920024;29;20043;-79
2022/12/22 03:55:22;;;;;;;9.23;7.78;;;11.60;96.70;;;;;;4896803;29;20103;-78
2022/12/22 03:57:50;;;;;;;8.88;7.63;;;11.60;96.70;;;;;;4890768;29;20052;-77
2022/12/22 04:00:19;;;;;;;9.07;8.18;;;11.60;96.70;;;;;;4907454;29;20040;-78
2022/12/22 04:02:46;;;;;;;9.50;7.80;;;11.50;96.70;;;;;;4898619;29;20086;-78
2022/12/22 04:05:15;;;;;;;11.25;8.40;;;11.50;96.70;;;;;;4918913;29;20527;-78
2022/12/22 04:07:44;;;;;;;10.32;8.07;;;11.50;96.70;;;;;;4906475;29;20652;-78
2022/12/22 04:12:58;;;;;;;9.43;8.43;;;11.50;96.70;;;;;;4915087;29;20410;-78
2022/12/22 04:15:27;;;;;;;9.27;7.90;;;11.50;96.70;;;;;;4890585;29;20431;-78
2022/12/22 04:17:55;;;;;;;10.45;8.68;;;11.50;96.70;;;;;;4903228;29;21387;-78
2022/12/22 04:20:27;;;;;;;11.88;8.70;;;11.50;96.70;;;;;;4895147;29;20147;-78
2022/12/22 04:22:57;;;;;;;13.25;9.05;;;11.50;96.70;;;;;;4896903;29;21323;-78
2022/12/22 04:25:27;;;;;;;11.13;8.68;;;11.50;96.70;;;;;;4893087;29;20056;-78
2022/12/22 04:27:54;;;;;;;11.05;9.25;;;11.50;96.70;;;;;;4914196;29;20446;-79
2022/12/22 04:30:22;;;;;;;10.48;8.77;;;11.50;96.70;;;;;;4883074;29;20050;-77
2022/12/22 04:32:50;;;;;;;11.60;8.45;;;11.50;96.70;;;;;;4891053;29;20051;-77
2022/12/22 04:35:18;;;;;;;9.60;8.20;;;11.50;96.70;;;;;;4898540;29;20043;-78
2022/12/22 04:37:46;;;;;;;9.45;8.15;;;11.60;96.70;;;;;;4896326;29;20040;-77
2022/12/22 04:40:17;;;;;;;10.00;8.88;;;11.60;96.70;;;;;;4892660;29;20070;-75
2022/12/22 04:42:45;;;;;;;9.35;8.40;;;11.60;96.70;;;;;;4912083;29;20130;-75
2022/12/22 04:45:13;;;;;;;10.55;8.40;;;11.60;96.70;;;;;;4905108;29;20048;-76
2022/12/22 04:47:41;;;;;;;9.68;8.45;;;11.50;96.70;;;;;;4889902;29;20052;-75
2022/12/22 04:50:09;;;;;;;10.32;8.73;;;11.60;96.70;;;;;;4895451;29;20051;-76
2022/12/22 04:52:38;;;;;;;9.38;8.43;;;11.60;96.70;;;;;;4919640;29;20051;-78
2022/12/22 04:55:08;;;;;;;10.13;7.95;;;11.60;96.70;;;;;;4910126;29;20055;-77
2022/12/22 04:57:38;;;;;;;9.93;8.40;;;11.60;96.70;;;;;;4899478;29;20399;-77
2022/12/22 05:00:10;;;;;;;11.73;8.45;;;11.60;96.70;;;;;;4901289;29;20048;-78
2022/12/22 05:02:39;;;;;;;9.68;7.65;;;11.60;96.70;;;;;;4895125;29;20076;-78
2022/12/22 05:05:08;;;;;;;10.07;7.72;;;11.70;96.70;;;;;;4891573;29;20414;-77
2022/12/22 05:07:37;;;;;;;11.32;7.28;;;11.60;96.70;;;;;;4877624;29;20446;-77
2022/12/22 05:10:05;;;;;;;11.20;6.95;;;11.60;96.70;;;;;;4894256;29;20048;-77
2022/12/22 05:15:22;;;;;;;8.60;7.70;;;11.60;96.70;;;;;;4909909;29;20094;-77
2022/12/22 05:17:56;;;;;;;8.18;7.38;;;11.60;96.70;;;;;;4895375;29;20664;-77
2022/12/22 05:20:25;;;;;;;8.27;7.20;;;11.60;96.70;;;;;;4923158;29;20064;-77
2022/12/22 05:22:54;;;;;;;8.77;6.75;;;11.60;96.70;;;;;;4903693;29;20363;-79
2022/12/22 05:25:22;;;;;;;7.78;6.97;;;11.60;96.70;;;;;;4920341;29;20091;-77
2022/12/22 05:27:50;;;;;;;8.57;6.97;;;11.60;96.70;;;;;;4914106;29;20483;-77
2022/12/22 05:30:20;;;;;;;8.35;6.60;;;11.60;96.70;;;;;;4890886;29;20048;-77
2022/12/22 05:32:48;;;;;;;7.28;6.57;;;11.60;96.70;;;;;;4908164;29;20494;-77
2022/12/22 05:35:17;;;;;;;7.82;6.60;;;11.60;96.70;;;;;;4905782;29;20059;-78
2022/12/22 05:37:45;;;;;;;7.18;6.40;;;11.60;96.70;;;;;;4899520;29;20083;-77
2022/12/22 05:40:13;;;;;;;7.45;6.50;;;11.60;96.70;;;;;;4891259;29;20132;-78
2022/12/22 05:42:40;;;;;;;7.93;7.03;;;11.60;96.70;;;;;;4891139;29;20060;-78
2022/12/22 05:45:15;;;;;;;8.38;6.57;;;11.60;96.70;;;;;;4888198;29;20140;-77
2022/12/22 05:47:46;;;;;;;8.13;6.57;;;11.60;96.70;;;;;;4894404;29;20130;-77
2022/12/22 05:50:17;;;;;;;9.60;6.57;;;11.60;96.70;;;;;;4915741;29;20048;-79
2022/12/22 05:52:56;;;;;;;11.13;7.68;;;11.60;96.70;;;;;;4890189;29;20051;-78
2022/12/22 05:55:24;;;;;;;8.63;6.97;;;11.60;96.70;;;;;;4915800;29;20052;-77
2022/12/22 05:57:52;;;;;;;7.70;6.88;;;11.60;96.70;;;;;;4898630;29;20379;-77
2022/12/22 06:00:21;;;;;;;9.18;8.15;;;11.60;96.70;;;;;;4895796;29;20096;-79
2022/12/22 06:02:50;;;;;;;8.25;7.35;;;11.60;96.70;;;;;;4885274;29;20047;-77
2022/12/22 06:05:19;;;;;;;11.40;8.57;;;11.60;96.70;;;;;;4894135;29;20111;-77
2022/12/22 06:07:47;;;;;;;10.50;8.93;;;11.60;96.70;;;;;;4895218;29;20039;-77
2022/12/22 06:10:15;;;;;;;8.73;7.80;;;11.60;96.70;;;;;;4925181;29;20436;-77
2022/12/22 06:12:43;;;;;;;10.23;8.00;;;11.60;96.70;;;;;;4895226;29;20066;-77
2022/12/22 06:15:12;;;;;;;9.55;8.55;;;11.60;96.70;;;;;;4906129;29;20125;-80
2022/12/22 06:17:41;;;;;;;9.70;8.52;;;11.60;96.70;;;;;;4902837;29;20078;-78
2022/12/22 06:20:15;;;;;;;8.68;7.78;;;11.60;96.70;;;;;;4890909;29;20056;-78
2022/12/22 06:22:43;;;;;;;11.70;9.20;;;11.60;96.70;;;;;;4897483;29;20111;-77
2022/12/22 06:25:11;;;;;;;11.40;9.23;;;11.60;96.70;;;;;;4900543;29;20036;-77
2022/12/22 06:27:45;;;;;;;10.05;8.45;;;11.60;96.70;;;;;;4888419;29;20048;-78
2022/12/22 06:30:14;;;;;;;10.27;9.18;;;11.60;96.70;;;;;;4919334;29;20043;-77
2022/12/22 06:32:42;;;;;;;10.57;8.32;;;11.60;96.70;;;;;;4900823;29;20075;-77
2022/12/22 06:35:10;;;;;;;11.13;7.55;;;11.60;96.70;;;;;;4901262;29;20048;-77
2022/12/22 06:37:40;;;;;;;8.80;6.95;;;11.60;96.70;;;;;;4887071;29;20501;-77
2022/12/22 06:40:09;;;;;;;8.05;7.15;;;11.60;96.70;;;;;;4891197;29;20048;-78
2022/12/22 06:45:32;;;;;;;9.20;6.03;;;11.60;96.70;;;;;;4907090;29;20472;-78
2022/12/22 06:48:00;;;;;;;10.77;7.05;;;11.60;96.70;;;;;;4909752;29;20044;-76
2022/12/22 06:50:27;;;;;;;7.57;6.47;;;11.60;96.70;;;;;;4917449;29;20048;-77
2022/12/22 06:52:57;;;;;;;7.53;6.05;;;11.60;96.70;;;;;;4909698;29;20594;-77
2022/12/22 06:55:24;;;;;;;7.50;5.93;;;11.60;96.70;;;;;;4900109;29;20071;-79
2022/12/22 06:57:52;;;;;;;8.27;6.38;;;11.60;96.70;;;;;;4899524;29;20054;-78
2022/12/22 07:00:21;;;;;;;8.40;7.03;;;11.60;96.70;;;;;;4895270;29;20048;-76
2022/12/22 07:02:48;;;;;;;8.18;7.30;;;11.50;96.70;;;;;;4892182;29;20056;-77
2022/12/22 07:05:16;;;;;;;7.18;6.47;;;11.50;96.70;;;;;;4915443;29;20043;-76
2022/12/22 07:07:45;;;;;;;8.38;7.00;;;11.50;96.70;;;;;;4926892;29;20047;-77
2022/12/22 07:10:14;;;;;;;8.35;7.53;;;11.60;96.70;;;;;;4917459;29;20063;-78
2022/12/22 07:12:42;;;;;;;8.30;6.35;;;11.60;96.70;;;;;;4896281;29;20055;-79
2022/12/22 07:15:10;;;;;;;9.48;7.13;;;11.60;96.70;;;;;;4878999;29;20082;-79
2022/12/22 07:17:40;;;;;;;8.05;7.25;;;11.60;96.70;;;;;;4910356;29;20140;-77
2022/12/22 07:20:09;;;;;;;8.52;7.63;;;11.50;96.70;;;;;;4892604;29;20607;-77
2022/12/22 07:22:37;;;;;;;9.70;8.10;;;11.50;96.70;;;;;;4892044;29;20095;-77
2022/12/22 07:25:05;;;;;;;9.32;8.43;;;11.60;96.70;;;;;;4892823;29;20048;-78
2022/12/22 07:27:34;;;;;;;9.80;8.43;;;11.60;96.70;;;;;;4914836;29;20112;-76
2022/12/22 07:30:02;;;;;;;9.00;8.10;;;11.60;96.70;;;;;;4899125;29;20415;-77
2022/12/22 07:32:30;;;;;;;9.60;8.60;;;11.60;96.70;;;;;;4915343;29;20706;-77
2022/12/22 07:34:58;;;;;;;10.30;8.68;;;11.60;96.70;;;;;;4889727;29;20048;-73
2022/12/22 07:37:41;;;;;;;9.35;8.35;;;11.60;96.70;;;;;;4908218;29;20141;-74
2022/12/22 07:40:10;;;;;;;10.90;9.05;;;11.60;96.70;;;;;;4912952;29;20035;-75
2022/12/22 07:42:45;;;;;;;12.32;9.93;;;11.60;96.70;;;;;;4917784;29;20094;-74
2022/12/22 07:45:14;;;;;;;13.18;10.23;;;11.60;96.70;;;;;;4910375;29;20072;-75
2022/12/22 07:47:42;;;;;;;11.60;10.43;;;11.60;96.70;;;;;;4914468;29;20056;-74
2022/12/22 07:50:24;;;;;;;12.52;11.00;;;11.60;96.70;;;;;;4915075;29;20046;-75
2022/12/22 07:52:53;;;;;;;14.38;11.30;;;11.60;96.70;;;;;;4890698;29;20055;-75
2022/12/22 07:55:22;;;;;;;12.38;11.07;;;11.60;96.70;;;;;;4907110;29;20051;-75
2022/12/22 07:57:52;;;;;;;13.95;11.65;;;11.60;96.70;;;;;;4917381;29;20047;-75
2022/12/22 08:00:21;;;;;;;15.00;11.43;;;11.60;96.70;;;;;;4917174;29;20056;-74
2022/12/22 08:02:50;;;;;;;12.73;11.40;;;11.60;96.70;;;;;;4926180;29;20483;-75
2022/12/22 08:05:18;;;;;;;12.65;11.00;;;11.60;96.70;;;;;;4893302;29;20459;-75
2022/12/22 08:07:48;;;;;;;13.80;10.77;;;11.60;96.70;;;;;;4906673;29;20210;-75
2022/12/22 08:10:17;;;;;;;14.23;11.68;;;11.70;96.70;;;;;;4897678;29;20054;-75
2022/12/22 08:12:45;;;;;;;15.02;11.15;;;11.70;96.70;;;;;;4896735;29;20047;-75
2022/12/22 08:15:15;;;;;;;13.13;11.60;;;11.70;96.70;;;;;;4884943;29;20052;-75
2022/12/22 08:17:42;;;;;;;12.30;11.00;;;11.70;96.70;;;;;;4908449;29;20458;-75
2022/12/22 08:20:11;;;;;;;12.35;10.98;;;11.70;96.70;;;;;;4925220;29;20111;-75
2022/12/22 08:22:39;;;;;;;13.95;10.75;;;11.70;96.70;;;;;;4908846;29;20447;-75
2022/12/22 08:25:07;;;;;;;12.45;11.00;;;11.70;96.70;;;;;;4889637;29;20180;-74
2022/12/22 08:27:41;;;;;;;14.48;12.70;;;11.70;96.70;;;;;;4908494;29;20040;-75
2022/12/22 08:30:10;;;;;;;13.98;11.82;;;11.70;96.70;;;;;;4908289;29;20525;-74
2022/12/22 08:32:40;;;;;;;12.57;11.18;;;11.70;96.70;;;;;;4916794;29;20047;-74
2022/12/22 08:35:09;;;;;;;14.70;12.55;;;11.70;96.70;;;;;;4906924;29;20131;-75
2022/12/22 08:37:41;;;;;;;19.83;15.48;;;11.70;96.70;;;;;;4889842;29;20051;-74
2022/12/22 08:40:13;;;;;;;16.88;14.10;;;11.70;96.70;;;;;;4906952;29;20070;-75
2022/12/22 08:42:41;;;;;;;13.70;12.27;;;11.70;96.70;;;;;;4893593;29;20143;-75
2022/12/22 08:45:10;;;;;;;14.15;12.60;;;11.70;96.70;;;;;;4889262;29;20565;-75
2022/12/22 08:47:39;;;;;;;14.50;12.98;;;11.70;96.70;;;;;;4889401;29;20096;-75
2022/12/22 08:50:08;;;;;;;17.42;13.45;;;11.80;96.70;;;;;;4890740;29;20056;-74
2022/12/22 08:52:36;;;;;;;20.15;14.50;;;11.80;96.70;;;;;;4902573;29;20051;-75
2022/12/22 08:55:05;;;;;;;13.75;11.90;;;11.80;96.70;;;;;;4919834;29;20040;-74
2022/12/22 08:57:33;;;;;;;11.95;10.60;;;11.80;96.70;;;;;;4922828;29;20103;-75
2022/12/22 09:00:01;;;;;;;12.18;10.88;;;11.80;96.70;;;;;;4925114;29;20103;-75
2022/12/22 09:02:29;;;;;;;12.60;11.10;;;11.80;96.70;;;;;;4890844;29;20060;-75
2022/12/22 09:04:59;;;;;;;12.95;11.63;;;11.80;96.70;;;;;;4904999;29;20083;-75
2022/12/22 09:07:27;;;;;;;16.10;14.07;;;11.90;96.70;;;;;;4889528;29;20731;-75
2022/12/22 09:09:56;;;;;;;13.10;11.70;;;11.90;96.70;;;;;;4894213;29;20127;-75
2022/12/22 09:12:24;;;;;;;16.20;11.18;;;11.90;96.70;;;;;;4914259;29;20036;-75
2022/12/22 09:14:52;;;;;;;12.70;10.73;;;11.90;96.70;;;;;;4898586;29;20059;-75
2022/12/22 09:17:20;;;;;;;12.60;10.45;;;11.90;96.70;;;;;;4889352;29;20505;-74
2022/12/22 09:19:47;;;;;;;13.77;11.82;;;12.00;96.70;;;;;;4895365;29;20068;-74
2022/12/22 09:22:17;;;;;;;12.60;11.30;;;12.00;96.70;;;;;;4899016;29;20055;-75
2022/12/22 09:24:55;;;;;;;12.85;11.13;;;12.00;96.70;;;;;;4902913;29;20628;-75
2022/12/22 09:27:22;;;;;;;12.55;10.65;;;12.00;96.70;;;;;;4899488;29;20045;-75
2022/12/22 09:29:50;;;;;;;12.65;11.23;;;12.10;96.70;;;;;;4897018;29;20072;-75
2022/12/22 09:32:18;;;;;;;15.85;11.80;;;12.10;96.70;;;;;;4890395;29;20044;-75
2022/12/22 09:34:47;;;;;;;13.57;10.60;;;12.10;96.70;;;;;;4895702;29;20056;-75
2022/12/22 09:37:16;;;;;;;12.20;10.23;;;12.20;96.70;;;;;;4907716;29;20115;-75
2022/12/22 09:39:45;;;;;;;12.35;10.80;;;12.20;96.70;;;;;;4893054;29;20495;-75
2022/12/22 09:42:17;;;;;;;11.65;10.07;;;12.20;96.70;;;;;;4906214;29;20079;-75
2022/12/22 09:44:52;;;;;;;14.45;10.90;;;12.20;96.70;;;;;;4895358;29;20044;-75
2022/12/22 09:47:24;;;;;;;16.08;11.85;;;12.20;96.70;;;;;;4881185;29;20155;-75
2022/12/22 09:49:54;;;;;;;15.88;11.05;;;12.20;96.70;;;;;;4894550;29;20156;-74
2022/12/22 09:52:45;;;;;;;12.82;11.35;;;12.30;96.70;;;;;;4901082;29;20052;-75
2022/12/22 09:55:24;;;;;;;13.30;10.90;;;12.30;96.70;;;;;;4905675;29;20052;-75
2022/12/22 09:57:53;;;;;;;15.43;11.23;;;12.40;96.70;;;;;;4897877;29;20056;-75
2022/12/22 10:00:27;;;;;;;12.25;10.05;;;12.40;96.70;;;;;;4892875;29;20487;-75
2022/12/22 10:03:00;;;;;;;12.52;10.13;;;12.40;96.70;;;;;;4907622;29;20040;-75
2022/12/22 10:05:37;;;;;;;13.50;9.23;;;12.50;96.70;;;;;;4901263;29;20536;-75
2022/12/22 10:08:12;;;;;;;10.35;9.25;;;12.60;96.70;;;;;;4889372;29;20049;-75
2022/12/22 10:10:40;;;;;;;11.20;9.75;;;12.60;96.70;;;;;;4891654;29;20048;-77
2022/12/22 10:13:17;;;;;;;10.10;9.10;;;12.70;96.70;;;;;;4903855;29;20530;-75
2022/12/22 10:15:45;;;;;;;10.05;8.95;;;12.70;96.70;;;;;;4907268;29;20048;-75
2022/12/22 10:18:15;;;;;;;12.25;9.57;;;12.70;96.70;;;;;;4898516;29;20120;-76
2022/12/22 10:20:46;;;;;;;10.60;9.50;;;12.70;96.70;;;;;;4901816;29;20076;-76
2022/12/22 10:23:26;;;;;;;9.82;8.82;;;12.70;96.70;;;;;;4873924;29;20522;-75
2022/12/22 10:26:08;;;;;;;10.05;9.15;;;12.60;96.70;;;;;;4888732;29;20049;-76
2022/12/22 10:29:04;;;;;;;10.02;8.93;;;12.60;96.70;;;;;;4902987;29;20052;-75
2022/12/22 10:31:33;;;;;;;11.48;10.25;;;12.50;96.70;;;;;;4888895;29;20063;-75
2022/12/22 10:34:11;;;;;;;26.05;19.60;;;12.50;96.70;;;;;;4882380;29;20044;-75
2022/12/22 10:36:41;;;;;;;44.85;30.85;;;12.50;96.70;;;;;;4892183;29;20053;-74
2022/12/22 10:39:12;;;;;;;19.75;15.70;;;12.60;96.70;;;;;;4890951;29;20048;-74
2022/12/22 10:41:41;;;;;;;13.13;11.10;;;12.60;96.70;;;;;;4907673;29;20056;-73
2022/12/22 10:44:18;;;;;;;10.40;9.43;;;12.60;96.70;;;;;;4907410;29;20126;-75
2022/12/22 10:46:48;;;;;;;11.02;9.82;;;12.60;96.70;;;;;;4905552;29;20063;-75
2022/12/22 10:49:22;;;;;;;10.52;9.43;;;12.70;96.70;;;;;;4888905;29;20056;-75
2022/12/22 10:51:52;;;;;;;11.40;10.15;;;12.70;96.70;;;;;;4888250;29;20362;-75
2022/12/22 10:54:34;;;;;;;10.18;9.20;;;12.70;96.70;;;;;;4890122;29;20060;-75
2022/12/22 10:57:06;;;;;;;10.93;9.52;;;12.60;96.70;;;;;;4898113;29;20079;-74
2022/12/22 10:59:46;;;;;;;10.80;9.27;;;12.70;96.70;;;;;;4906528;29;20071;-75
2022/12/22 11:02:30;;;;;;;12.45;9.55;;;12.80;96.70;;;;;;4899657;29;20068;-76
2022/12/22 11:05:05;;;;;;;10.40;9.10;;;13.00;96.70;;;;;;4888110;29;20289;-75
2022/12/22 11:07:35;;;;;;;10.57;9.52;;;13.00;96.70;;;;;;4902449;29;20060;-75
2022/12/22 11:10:19;;;;;;;11.15;9.55;;;12.90;96.70;;;;;;4906238;29;20688;-74
2022/12/22 11:13:01;;;;;;;10.82;9.75;;;12.90;96.70;;;;;;4903340;29;20053;-75
2022/12/22 11:15:37;;;;;;;11.48;9.77;;;12.90;96.70;;;;;;4889039;29;20079;-75
2022/12/22 11:18:20;;;;;;;10.65;9.57;;;12.90;96.70;;;;;;4889896;29;20068;-75
2022/12/22 11:20:59;;;;;;;11.55;10.35;;;12.80;96.70;;;;;;4881813;29;20116;-74
2022/12/22 11:23:35;;;;;;;14.25;10.68;;;12.80;96.70;;;;;;4897338;29;20053;-75
2022/12/22 11:26:12;;;;;;;11.85;10.13;;;12.80;96.70;;;;;;4896751;29;20044;-75
2022/12/22 11:29:14;;;;;;;11.80;10.60;;;12.80;96.70;;;;;;4897620;29;20346;-75
2022/12/22 11:31:58;;;;;;;10.48;9.38;;;12.80;96.70;;;;;;4903751;29;20048;-76
2022/12/22 11:34:43;;;;;;;11.02;9.88;;;12.80;96.70;;;;;;4887534;29;20048;-75
2022/12/22 11:37:23;;;;;;;11.15;10.05;;;12.80;96.70;;;;;;4895834;29;20049;-74
2022/12/22 11:39:55;;;;;;;11.10;9.68;;;12.80;96.70;;;;;;4899667;29;20092;-77
2022/12/22 11:42:45;;;;;;;11.45;10.35;;;12.70;96.70;;;;;;4892417;29;20044;-76
2022/12/22 11:45:32;;;;;;;11.40;10.30;;;12.70;96.70;;;;;;4903494;29;20075;-74
2022/12/22 11:48:29;;;;;;;10.82;9.73;;;12.70;96.70;;;;;;4894414;29;20159;-74
2022/12/22 11:51:03;;;;;;;11.48;10.32;;;12.60;96.70;;;;;;4890055;29;20143;-73
2022/12/22 11:54:10;;;;;;;11.43;10.23;;;12.60;96.70;;;;;;4896401;29;20092;-75
2022/12/22 11:56:41;;;;;;;11.45;9.27;;;12.60;96.70;;;;;;4904774;29;20071;-75
2022/12/22 11:59:25;;;;;;;10.25;9.25;;;12.60;96.70;;;;;;4895453;29;20116;-75
2022/12/22 12:02:21;;;;;;;11.57;10.38;;;12.60;96.70;;;;;;4888855;29;20563;-75
2022/12/22 12:05:14;;;;;;;10.07;9.07;;;12.70;96.70;;;;;;4896722;29;20056;-74
2022/12/22 12:07:44;;;;;;;10.88;8.88;;;12.70;96.70;;;;;;4906918;29;20040;-75
2022/12/22 12:10:17;;;;;;;12.02;10.38;;;12.70;96.70;;;;;;4889518;29;20063;-75
2022/12/22 12:12:54;;;;;;;10.18;9.13;;;12.70;96.70;;;;;;4899811;29;20052;-74
2022/12/22 12:15:30;;;;;;;10.15;9.15;;;12.70;96.70;;;;;;4887306;29;20048;-75
2022/12/22 12:18:27;;;;;;;10.30;9.07;;;12.60;96.70;;;;;;4902386;29;20052;-75
2022/12/22 12:21:09;;;;;;;11.00;9.68;;;12.60;96.70;;;;;;4913312;29;20051;-75
2022/12/22 12:24:06;;;;;;;10.80;9.70;;;12.60;96.70;;;;;;4925533;29;20043;-75
2022/12/22 12:26:40;;;;;;;11.52;10.32;;;12.60;96.70;;;;;;4898629;29;20051;-74
2022/12/22 12:29:15;;;;;;;11.68;9.63;;;12.60;96.70;;;;;;4890529;29;20538;-75
2022/12/22 12:31:49;;;;;;;12.50;10.98;;;12.60;96.70;;;;;;4889909;29;20051;-76
2022/12/22 12:34:19;;;;;;;12.38;11.07;;;12.60;96.70;;;;;;4906889;29;20535;-74
2022/12/22 12:36:51;;;;;;;14.32;10.70;;;12.60;96.70;;;;;;4890579;29;20058;-74
2022/12/22 12:39:28;;;;;;;10.57;9.48;;;12.50;96.70;;;;;;4892126;29;20103;-76
2022/12/22 12:42:05;;;;;;;11.05;9.30;;;12.50;96.70;;;;;;4890415;29;20048;-78
2022/12/22 12:44:36;;;;;;;12.23;9.80;;;12.50;96.70;;;;;;4898127;29;20486;-76
2022/12/22 12:47:24;;;;;;;11.32;10.20;;;12.50;96.70;;;;;;4915775;29;20054;-77
2022/12/22 12:49:58;;;;;;;12.10;10.35;;;12.50;96.70;;;;;;4896100;29;20470;-77
2022/12/22 12:53:12;;;;;;;10.65;9.55;;;12.50;96.70;;;;;;4881298;29;20060;-77
2022/12/22 12:56:07;;;;;;;12.93;11.52;;;12.50;96.70;;;;;;4899861;29;20043;-77
2022/12/22 12:58:52;;;;;;;11.50;10.10;;;12.50;96.70;;;;;;4902218;29;20067;-77
2022/12/22 13:01:54;;;;;;;10.82;9.73;;;12.50;96.70;;;;;;4910144;29;20047;-77
2022/12/22 13:05:10;;;;;;;12.02;10.63;;;12.50;96.70;;;;;;4929549;29;20103;-77
2022/12/22 13:08:20;;;;;;;12.23;10.93;;;12.50;96.70;;;;;;4890693;29;20115;-77
2022/12/22 13:11:19;;;;;;;12.27;10.63;;;12.50;96.70;;;;;;4895893;29;20056;-77
2022/12/22 13:14:06;;;;;;;;;;;12.50;96.70;;;;;;4912919;29;21057;-77
2022/12/22 13:16:37;;;;;;;11.73;10.48;;;12.50;96.70;;;;;;4881096;29;19931;-77
2022/12/22 13:19:23;;;;;;;12.90;10.30;;;12.50;96.70;;;;;;4895537;29;20078;-77
2022/12/22 13:21:56;;;;;;;13.68;12.20;;;12.50;96.70;;;;;;4909083;29;20062;-77
2022/12/22 13:24:28;;;;;;;14.70;13.20;;;12.50;96.70;;;;;;4910618;29;20084;-78
2022/12/22 13:27:05;;;;;;;14.75;13.25;;;12.50;96.70;;;;;;4919424;29;20066;-78
2022/12/22 13:29:45;;;;;;;13.27;11.85;;;12.50;96.70;;;;;;4893988;29;20047;-77
2022/12/22 13:32:32;;;;;;;13.93;12.23;;;12.40;96.70;;;;;;4909485;29;20051;-78
2022/12/22 13:35:17;;;;;;;14.60;13.10;;;12.50;96.70;;;;;;4904062;29;20509;-77
2022/12/22 13:38:05;;;;;;;22.80;18.02;;;12.50;96.70;;;;;;4896259;29;20044;-78
2022/12/22 13:40:40;;;;;;;17.33;15.52;;;12.50;96.70;;;;;;4899095;29;20127;-78
2022/12/22 13:43:14;;;;;;;16.85;15.05;;;12.50;96.70;;;;;;4912698;29;20577;-77
2022/12/22 13:45:44;;;;;;;16.52;13.75;;;12.60;96.70;;;;;;4910066;29;20052;-77
2022/12/22 13:48:15;;;;;;;16.50;13.43;;;12.60;96.70;;;;;;4909329;29;20052;-77
2022/12/22 13:50:46;;;;;;;16.20;13.85;;;12.60;96.70;;;;;;4918050;29;20048;-78
2022/12/22 13:53:18;;;;;;;16.05;14.35;;;12.60;96.70;;;;;;4918841;29;20055;-77
2022/12/22 13:56:11;;;;;;;16.50;14.73;;;12.60;96.70;;;;;;4901439;29;20047;-77
2022/12/22 13:58:45;;;;;;;15.35;13.70;;;12.50;96.70;;;;;;4904933;29;20293;-77
2022/12/22 14:01:16;;;;;;;15.60;14.00;;;12.50;96.70;;;;;;4910675;29;20082;-78
2022/12/22 14:03:50;;;;;;;17.60;14.88;;;12.50;96.70;;;;;;4911275;29;20055;-77
2022/12/22 14:06:31;;;;;;;20.45;15.70;;;12.50;96.70;;;;;;4896737;29;20151;-77
2022/12/22 14:09:14;;;;;;;16.98;15.07;;;12.50;96.70;;;;;;4917934;29;20049;-77
2022/12/22 14:11:45;;;;;;;18.00;14.65;;;12.50;96.70;;;;;;4894675;29;20519;-77
2022/12/22 14:14:23;;;;;;;15.02;13.43;;;12.50;96.70;;;;;;4918425;29;20055;-77
2022/12/22 14:16:53;;;;;;;16.05;14.45;;;12.50;96.70;;;;;;4893160;29;20527;-78
2022/12/22 14:19:22;;;;;;;17.25;14.93;;;12.50;96.70;;;;;;4899098;29;20052;-77
2022/12/22 14:22:01;;;;;;;19.20;15.75;;;12.50;96.70;;;;;;4892526;29;20466;-77
2022/12/22 14:24:34;;;;;;;17.90;16.00;;;12.50;96.70;;;;;;4919076;29;20127;-77
2022/12/22 14:27:11;;;;;;;25.67;20.40;;;12.40;96.70;;;;;;4901630;29;20172;-77
2022/12/22 14:29:40;;;;;;;17.38;14.43;;;12.50;96.70;;;;;;4900559;29;20123;-77
2022/12/22 14:32:09;;;;;;;18.05;15.57;;;12.40;96.70;;;;;;4902524;29;20135;-77
2022/12/22 14:34:37;;;;;;;18.38;15.80;;;12.50;96.70;;;;;;4926400;29;20076;-79
2022/12/22 14:37:09;;;;;;;18.02;16.13;;;12.50;96.70;;;;;;4900301;29;20380;-77
2022/12/22 14:39:37;;;;;;;16.35;14.20;;;12.50;96.70;;;;;;4893897;29;20925;-78
2022/12/22 14:42:12;;;;;;;17.20;15.32;;;12.50;96.70;;;;;;4900152;29;20052;-77
2022/12/22 14:44:45;;;;;;;15.85;14.15;;;12.50;96.70;;;;;;4891656;29;20115;-79
2022/12/22 14:47:18;;;;;;;14.38;12.07;;;12.50;96.70;;;;;;4910560;29;20079;-78
2022/12/22 14:49:48;;;;;;;14.07;12.23;;;12.50;96.70;;;;;;4897781;29;20044;-77
2022/12/22 14:52:37;;;;;;;14.90;13.10;;;12.50;96.70;;;;;;4908909;29;20649;-77
2022/12/22 14:55:21;;;;;;;16.08;14.48;;;12.50;96.70;;;;;;4898632;29;20115;-77
2022/12/22 14:57:53;;;;;;;20.45;18.25;;;12.50;96.70;;;;;;4891369;29;20063;-77
2022/12/22 15:00:34;;;;;;;18.15;16.02;;;12.60;96.70;;;;;;4912183;29;20070;-77
2022/12/22 15:03:05;;;;;;;18.58;16.67;;;12.50;96.70;;;;;;4900818;29;20138;-77
2022/12/22 15:05:36;;;;;;;19.50;16.67;;;12.50;96.70;;;;;;4891729;29;20115;-77
2022/12/22 15:08:06;;;;;;;19.67;17.00;;;12.50;96.70;;;;;;4895203;29;20048;-78
2022/12/22 15:10:42;;;;;;;18.88;15.98;;;12.50;96.70;;;;;;4908783;29;20067;-78
2022/12/22 15:13:16;;;;;;;19.70;17.35;;;12.50;96.70;;;;;;4909165;29;20063;-77
2022/12/22 15:15:45;;;;;;;19.20;16.30;;;12.50;96.70;;;;;;4906940;29;20135;-77
2022/12/22 15:18:14;;;;;;;19.77;17.60;;;12.50;96.70;;;;;;4904242;29;20051;-77
2022/12/22 15:20:42;;;;;;;19.95;17.55;;;12.50;96.70;;;;;;4892307;29;20064;-78
2022/12/22 15:23:12;;;;;;;20.80;16.23;;;12.50;96.70;;;;;;4896610;29;20044;-77
2022/12/22 15:25:40;;;;;;;18.63;16.50;;;12.50;96.70;;;;;;4899012;29;20052;-77
2022/12/22 15:28:08;;;;;;;18.50;15.65;;;12.50;96.70;;;;;;4902502;29;20088;-77
2022/12/22 15:30:36;;;;;;;18.48;16.38;;;12.50;96.70;;;;;;4895340;29;20096;-77
2022/12/22 15:33:12;;;;;;;17.27;15.43;;;12.50;96.70;;;;;;4893719;29;20044;-78
2022/12/22 15:35:40;;;;;;;18.10;15.63;;;12.50;96.70;;;;;;4899027;29;20479;-78
2022/12/22 15:38:12;;;;;;;18.88;15.30;;;12.50;96.70;;;;;;4904633;29;20052;-78
2022/12/22 15:40:40;;;;;;;17.55;15.10;;;12.50;96.70;;;;;;4880765;29;20746;-78
2022/12/22 15:43:08;;;;;;;17.15;15.35;;;12.50;96.70;;;;;;4895405;29;20116;-78
2022/12/22 15:45:49;;;;;;;15.45;13.57;;;12.50;96.70;;;;;;4895884;29;20048;-78
2022/12/22 15:48:22;;;;;;;16.80;14.00;;;12.50;96.70;;;;;;4888189;29;20522;-77
2022/12/22 15:51:11;;;;;;;21.13;17.23;;;12.50;96.70;;;;;;4904118;29;20129;-78
2022/12/22 15:53:38;;;;;;;19.70;16.70;;;12.50;96.70;;;;;;4895102;29;20111;-78
2022/12/22 15:56:14;;;;;;;18.35;16.20;;;12.50;96.70;;;;;;4890579;29;20044;-78
2022/12/22 15:58:44;;;;;;;18.83;16.85;;;12.50;96.70;;;;;;4889789;29;20108;-77
2022/12/22 16:01:13;;;;;;;21.58;18.65;;;12.50;96.70;;;;;;4888113;29;20055;-78
2022/12/22 16:03:42;;;;;;;20.00;17.17;;;12.40;96.70;;;;;;4893104;29;20059;-77
2022/12/22 16:06:13;;;;;;;17.02;14.13;;;12.50;96.70;;;;;;4905195;29;20148;-78
2022/12/22 16:08:45;;;;;;;16.55;14.85;;;12.40;96.70;;;;;;4903889;29;20052;-78
2022/12/22 16:11:14;;;;;;;17.83;15.93;;;12.40;96.70;;;;;;4893479;29;20060;-79
2022/12/22 16:13:42;;;;;;;19.50;17.10;;;12.50;96.70;;;;;;4893609;29;20044;-79
2022/12/22 16:16:11;;;;;;;21.05;16.25;;;12.50;96.70;;;;;;4886688;29;20135;-79
2022/12/22 16:18:39;;;;;;;18.42;16.30;;;12.50;96.70;;;;;;4901761;29;20071;-78
2022/12/22 16:21:15;;;;;;;32.80;24.73;;;12.50;96.70;;;;;;4921423;29;20115;-78
2022/12/22 16:23:46;;;;;;;24.73;19.67;;;12.40;96.70;;;;;;4884092;29;21172;-79
2022/12/22 16:26:18;;;;;;;19.95;17.63;;;12.40;96.70;;;;;;4911936;29;20052;-78
2022/12/22 16:28:46;;;;;;;18.52;16.52;;;12.50;96.70;;;;;;4893449;29;20593;-78
2022/12/22 16:31:17;;;;;;;23.95;18.95;;;12.50;96.70;;;;;;4907632;29;20403;-78
2022/12/22 16:33:46;;;;;;;18.63;16.75;;;12.50;96.70;;;;;;4915767;29;20044;-79
2022/12/22 16:36:15;;;;;;;18.30;16.40;;;12.50;96.70;;;;;;4904705;29;20063;-78
2022/12/22 16:38:44;;;;;;;19.75;17.70;;;12.50;96.70;;;;;;4893685;29;20410;-78
2022/12/22 16:41:20;;;;;;;21.95;18.52;;;12.50;96.70;;;;;;4922148;29;20441;-78
2022/12/22 16:43:49;;;;;;;21.75;19.30;;;12.50;96.70;;;;;;4925041;29;20052;-79